Time;durP1;ratioP1;P1;durP2;ratioP2;P2;SDS_P1;SDS_P2;PMS_P1;PMS_P2;Temp;Humidity;BMP_temperature;BMP_pressure;BME280_temperature;BME280_humidity;BME280_pressure;Samples;Min_cycle;Max_cycle;Signal;HPM_P1;HPM_P2
2024/03/23 00:02:15;;;;;;;1.20;0.63;;;;;;;8.63;100.00;100296.78;4865397;29;20190;-78
2024/03/23 00:04:46;;;;;;;1.63;1.50;;;;;;;8.59;100.00;100298.25;4880712;29;20253;-77
2024/03/23 00:07:18;;;;;;;0.80;0.60;;;;;;;8.43;100.00;100291.34;4880340;29;20341;-77
2024/03/23 00:09:49;;;;;;;7.43;1.80;;;;;;;8.48;100.00;100294.28;4878569;29;20685;-78
2024/03/23 00:12:21;;;;;;;2.42;0.70;;;;;;;8.56;100.00;100291.41;4901286;29;20269;-75
2024/03/23 00:14:52;;;;;;;5.07;1.52;;;;;;;8.46;100.00;100287.44;4888302;29;20217;-77
2024/03/23 00:17:23;;;;;;;1.48;0.85;;;;;;;8.46;100.00;100284.72;4878800;29;20265;-76
2024/03/23 00:19:54;;;;;;;7.70;1.20;;;;;;;8.54;100.00;100276.44;4883013;29;20205;-76
2024/03/23 00:22:26;;;;;;;1.58;0.70;;;;;;;8.43;100.00;100268.94;4891849;29;20249;-75
2024/03/23 00:24:57;;;;;;;0.80;0.50;;;;;;;8.50;100.00;100264.41;4886134;29;20227;-76
2024/03/23 00:27:28;;;;;;;9.48;1.80;;;;;;;8.35;100.00;100259.19;4881625;29;20193;-77
2024/03/23 00:29:59;;;;;;;1.27;0.70;;;;;;;8.43;100.00;100258.16;4882449;29;20230;-77
2024/03/23 00:32:30;;;;;;;1.05;0.60;;;;;;;8.53;100.00;100269.38;4887181;29;20237;-77
2024/03/23 00:35:01;;;;;;;2.95;1.30;;;;;;;8.44;100.00;100251.75;4880604;29;20228;-77
2024/03/23 00:37:33;;;;;;;3.75;0.75;;;;;;;8.42;100.00;100240.34;4867839;29;20274;-77
2024/03/23 00:40:04;;;;;;;1.70;0.70;;;;;;;8.37;100.00;100232.88;4877565;29;20217;-77
2024/03/23 00:42:35;;;;;;;0.90;0.70;;;;;;;8.50;100.00;100232.88;4864628;29;20202;-77
2024/03/23 00:45:08;;;;;;;7.93;1.45;;;;;;;8.35;100.00;100228.69;4880445;29;20779;-77
2024/03/23 00:47:40;;;;;;;3.65;0.80;;;;;;;8.42;100.00;100230.41;4880456;29;20242;-76
2024/03/23 00:50:10;;;;;;;1.13;1.00;;;;;;;8.55;100.00;100234.97;4880140;29;20285;-77
2024/03/23 00:52:42;;;;;;;2.10;0.82;;;;;;;8.59;100.00;100226.25;4881230;29;20179;-77
2024/03/23 00:55:10;;;;;;;0.80;0.50;;;;;;;8.51;100.00;100228.34;4880137;29;20266;-77
2024/03/23 00:57:38;;;;;;;1.30;1.17;;;;;;;8.39;100.00;100222.69;4885725;29;20193;-78
2024/03/23 01:00:09;;;;;;;2.92;1.17;;;;;;;8.41;100.00;100217.09;4891450;29;20733;-77
2024/03/23 01:02:38;;;;;;;1.92;1.02;;;;;;;8.39;100.00;100213.78;4879978;29;20210;-78
2024/03/23 01:05:05;;;;;;;2.05;1.02;;;;;;;8.36;100.00;100214.19;4887689;29;20304;-77
2024/03/23 01:07:33;;;;;;;1.55;0.68;;;;;;;8.45;100.00;100218.34;4885117;29;20190;-77
2024/03/23 01:10:00;;;;;;;1.40;0.65;;;;;;;8.28;100.00;100218.69;4864601;29;20653;-78
2024/03/23 01:12:29;;;;;;;5.43;1.13;;;;;;;8.36;100.00;100214.19;4868775;29;20198;-78
2024/03/23 01:14:56;;;;;;;1.33;0.80;;;;;;;8.51;100.00;100201.38;4864430;29;20289;-77
2024/03/23 01:17:24;;;;;;;7.22;3.10;;;;;;;8.49;100.00;100212.34;4882835;29;20194;-77
2024/03/23 01:19:52;;;;;;;10.18;1.42;;;;;;;8.44;100.00;100209.44;4883019;29;20186;-77
2024/03/23 01:22:20;;;;;;;1.02;0.77;;;;;;;8.31;100.00;100208.59;4883120;29;20245;-77
2024/03/23 01:24:47;;;;;;;1.00;0.70;;;;;;;8.30;100.00;100199.66;4852910;29;20697;-77
2024/03/23 01:27:15;;;;;;;3.75;1.38;;;;;;;8.39;100.00;100200.28;4889480;29;20206;-76
2024/03/23 01:29:43;;;;;;;1.63;0.70;;;;;;;8.37;100.00;100194.28;4882807;29;20708;-77
2024/03/23 01:32:11;;;;;;;1.52;0.90;;;;;;;8.26;100.00;100195.69;4882854;29;20206;-77
2024/03/23 01:34:38;;;;;;;4.80;0.70;;;;;;;8.29;100.00;100192.56;4883479;29;20716;-77
2024/03/23 01:37:06;;;;;;;0.90;0.65;;;;;;;8.41;100.00;100180.19;4883200;29;20266;-77
2024/03/23 01:39:33;;;;;;;2.35;1.88;;;;;;;8.51;100.00;100177.94;4882428;29;20190;-77
2024/03/23 01:42:01;;;;;;;2.33;1.15;;;;;;;8.32;100.00;100170.66;4883231;29;20375;-77
2024/03/23 01:44:28;;;;;;;3.15;0.80;;;;;;;8.28;100.00;100150.47;4887259;29;20216;-77
2024/03/23 01:46:57;;;;;;;1.65;1.00;;;;;;;8.28;100.00;100148.59;4901942;29;20220;-77
2024/03/23 01:49:25;;;;;;;1.20;0.77;;;;;;;8.10;100.00;100151.06;4874679;29;20196;-77
2024/03/23 01:51:53;;;;;;;3.17;1.00;;;;;;;7.93;100.00;100147.09;4876855;29;20230;-77
2024/03/23 01:54:20;;;;;;;0.88;0.60;;;;;;;7.92;100.00;100141.91;4890523;29;20648;-77
2024/03/23 01:56:49;;;;;;;0.90;0.60;;;;;;;8.20;100.00;100142.59;4892917;29;20590;-77
2024/03/23 01:59:19;;;;;;;6.28;1.27;;;;;;;8.03;100.00;100139.47;4893177;29;20253;-77
2024/03/23 02:01:46;;;;;;;2.30;1.80;;;;;;;8.14;100.00;100146.94;4911059;29;20198;-77
2024/03/23 02:04:16;;;;;;;1.20;0.60;;;;;;;8.31;100.00;100136.63;4899917;29;20202;-78
2024/03/23 02:06:44;;;;;;;1.70;0.93;;;;;;;8.36;100.00;100130.63;4910236;29;20186;-76
2024/03/23 02:09:11;;;;;;;5.13;0.75;;;;;;;8.40;100.00;100131.88;4902582;29;20182;-78
2024/03/23 02:11:39;;;;;;;2.33;1.08;;;;;;;8.44;100.00;100127.72;4903383;29;20182;-77
2024/03/23 02:14:07;;;;;;;3.20;1.40;;;;;;;8.41;100.00;100137.06;4899025;29;20224;-77
2024/03/23 02:16:35;;;;;;;1.92;0.82;;;;;;;8.29;100.00;100131.44;4866897;29;20297;-77
2024/03/23 02:19:02;;;;;;;8.20;2.88;;;;;;;8.29;100.00;100135.97;4882153;29;20644;-78
2024/03/23 02:21:34;;;;;;;3.83;1.23;;;;;;;8.24;100.00;100131.19;4882339;29;20273;-77
2024/03/23 02:24:03;;;;;;;1.25;0.90;;;;;;;8.18;100.00;100128.50;4882013;29;20591;-77
2024/03/23 02:26:31;;;;;;;1.60;1.00;;;;;;;8.07;100.00;100135.31;4906441;29;20209;-77
2024/03/23 02:28:58;;;;;;;2.88;1.67;;;;;;;8.05;100.00;100123.91;4882094;29;20194;-77
2024/03/23 02:31:26;;;;;;;6.05;1.83;;;;;;;8.14;100.00;100119.97;4874554;29;20254;-77
2024/03/23 02:33:53;;;;;;;1.98;1.40;;;;;;;8.05;100.00;100110.44;4882267;29;20214;-77
2024/03/23 02:36:22;;;;;;;1.08;0.50;;;;;;;8.17;100.00;100105.28;4881992;29;20222;-78
2024/03/23 02:38:49;;;;;;;6.20;1.38;;;;;;;8.13;100.00;100107.53;4882018;29;20250;-77
2024/03/23 02:41:22;;;;;;;1.63;0.73;;;;;;;8.05;100.00;100094.25;4874984;29;20191;-77
2024/03/23 02:43:50;;;;;;;1.85;1.55;;;;;;;8.06;100.00;100090.53;4851988;29;20586;-76
2024/03/23 02:46:18;;;;;;;5.53;0.98;;;;;;;8.20;100.00;100083.28;4857676;29;20309;-78
2024/03/23 02:48:48;;;;;;;1.58;1.30;;;;;;;8.29;100.00;100091.00;4882553;29;20204;-78
2024/03/23 02:51:16;;;;;;;4.25;0.95;;;;;;;8.32;100.00;100078.16;4884133;29;20181;-76
2024/03/23 02:53:43;;;;;;;3.33;0.70;;;;;;;8.13;100.00;100080.59;4896975;29;20226;-76
2024/03/23 02:56:15;;;;;;;0.80;0.50;;;;;;;8.25;100.00;100081.66;4892244;29;20269;-75
2024/03/23 02:58:44;;;;;;;0.95;0.85;;;;;;;8.40;100.00;100078.78;4892219;29;20226;-76
2024/03/23 03:01:12;;;;;;;3.15;1.10;;;;;;;8.37;100.00;100086.47;4891409;29;20571;-77
2024/03/23 03:03:40;;;;;;;1.30;0.77;;;;;;;8.16;100.00;100082.88;4882108;29;20252;-76
2024/03/23 03:06:08;;;;;;;1.45;1.35;;;;;;;8.35;100.00;100085.81;4904407;29;20210;-77
2024/03/23 03:08:35;;;;;;;1.65;1.02;;;;;;;8.16;100.00;100072.09;4892685;29;20191;-79
2024/03/23 03:11:03;;;;;;;1.70;0.80;;;;;;;8.24;100.00;100071.91;4896077;29;20532;-78
2024/03/23 03:13:30;;;;;;;2.05;1.00;;;;;;;8.17;100.00;100071.09;4882603;29;20222;-76
2024/03/23 03:16:00;;;;;;;10.55;2.20;;;;;;;8.26;100.00;100067.13;4882677;29;20192;-78
2024/03/23 03:18:27;;;;;;;1.33;1.00;;;;;;;8.20;100.00;100062.56;4890186;29;20680;-78
2024/03/23 03:20:57;;;;;;;2.40;0.70;;;;;;;8.26;100.00;100059.06;4881508;29;20202;-78
2024/03/23 03:23:24;;;;;;;3.75;1.00;;;;;;;8.21;100.00;100055.31;4878489;29;20775;-75
2024/03/23 03:25:52;;;;;;;0.80;0.50;;;;;;;7.99;100.00;100057.34;4877968;29;20206;-79
2024/03/23 03:28:19;;;;;;;2.38;0.90;;;;;;;8.07;100.00;100056.34;4881268;29;20202;-76
2024/03/23 03:30:48;;;;;;;0.80;0.50;;;;;;;8.03;100.00;100061.31;4880405;29;20220;-77
2024/03/23 03:33:17;;;;;;;1.17;1.08;;;;;;;7.96;100.00;100041.63;4879818;29;20281;-77
2024/03/23 03:35:45;;;;;;;1.10;0.85;;;;;;;7.81;100.00;100038.28;4874366;29;20194;-76
2024/03/23 03:38:12;;;;;;;1.83;1.35;;;;;;;8.02;100.00;100037.28;4880882;29;20194;-77
2024/03/23 03:40:42;;;;;;;3.22;1.23;;;;;;;7.97;100.00;100039.75;4865285;29;20198;-77
2024/03/23 03:43:09;;;;;;;8.32;0.75;;;;;;;7.64;100.00;100042.41;4880592;29;20285;-77
2024/03/23 03:45:37;;;;;;;5.60;1.67;;;;;;;7.67;100.00;100041.97;4881179;29;20217;-77
2024/03/23 03:48:05;;;;;;;2.22;1.15;;;;;;;7.72;100.00;100029.56;4880729;29;20194;-77
2024/03/23 03:50:35;;;;;;;3.10;2.83;;;;;;;7.61;100.00;100038.22;4880811;29;20194;-77
2024/03/23 03:53:02;;;;;;;3.42;0.70;;;;;;;7.40;100.00;100046.47;4880875;29;20197;-77
2024/03/23 03:55:30;;;;;;;0.90;0.75;;;;;;;7.38;100.00;100043.97;4881909;29;20186;-77
2024/03/23 03:57:58;;;;;;;1.52;0.77;;;;;;;7.42;100.00;100034.47;4881622;29;20190;-78
2024/03/23 04:00:26;;;;;;;0.80;0.50;;;;;;;7.36;100.00;100024.50;4881874;29;20194;-78
2024/03/23 04:02:53;;;;;;;1.35;1.20;;;;;;;7.45;100.00;100024.34;4883568;29;20198;-77
2024/03/23 04:05:22;;;;;;;5.68;1.08;;;;;;;7.59;100.00;100028.72;4865618;29;20229;-78
2024/03/23 04:07:52;;;;;;;0.80;0.50;;;;;;;7.43;100.00;100021.84;4881492;29;20198;-77
2024/03/23 04:10:19;;;;;;;0.90;0.65;;;;;;;7.43;100.00;100025.38;4898621;29;20561;-76
2024/03/23 04:12:49;;;;;;;2.22;0.80;;;;;;;7.23;100.00;100012.88;4900943;29;20193;-76
2024/03/23 04:15:19;;;;;;;1.83;0.80;;;;;;;7.37;100.00;100026.16;4883023;29;20224;-75
2024/03/23 04:17:48;;;;;;;0.90;0.70;;;;;;;7.14;100.00;100025.69;4866322;29;20269;-77
2024/03/23 04:20:16;;;;;;;0.90;0.75;;;;;;;6.83;100.00;100022.63;4865747;29;20571;-76
2024/03/23 04:22:45;;;;;;;1.45;1.25;;;;;;;6.77;100.00;100028.81;4881127;29;20634;-76
2024/03/23 04:25:14;;;;;;;2.85;0.60;;;;;;;6.68;100.00;100025.44;4876128;29;20236;-76
2024/03/23 04:27:43;;;;;;;0.80;0.68;;;;;;;6.67;100.00;100020.28;4900632;29;20196;-76
2024/03/23 04:30:15;;;;;;;0.80;0.50;;;;;;;6.75;100.00;100014.72;4900040;29;20182;-77
2024/03/23 04:32:44;;;;;;;1.88;0.60;;;;;;;7.02;100.00;100011.13;4867347;29;20183;-76
2024/03/23 04:35:12;;;;;;;9.07;0.82;;;;;;;7.10;100.00;100005.59;4882287;29;20233;-77
2024/03/23 04:37:41;;;;;;;6.70;1.15;;;;;;;7.30;100.00;100005.66;4886056;29;20204;-76
2024/03/23 04:40:11;;;;;;;0.80;0.50;;;;;;;7.11;100.00;100006.41;4889706;29;20198;-76
2024/03/23 04:42:41;;;;;;;0.90;0.52;;;;;;;7.16;100.00;99996.72;4902985;29;20198;-74
2024/03/23 04:45:10;;;;;;;0.80;0.60;;;;;;;7.09;100.00;99993.16;4883587;29;20254;-76
2024/03/23 04:47:38;;;;;;;0.80;0.40;;;;;;;7.18;100.00;99997.31;4894593;29;20513;-75
2024/03/23 04:50:07;;;;;;;1.42;1.00;;;;;;;7.21;100.00;99994.22;4892629;29;20190;-77
2024/03/23 04:52:36;;;;;;;0.80;0.50;;;;;;;7.20;100.00;99987.22;4884787;29;20269;-77
2024/03/23 04:55:05;;;;;;;0.80;0.60;;;;;;;7.27;100.00;99977.28;4884783;29;20258;-76
2024/03/23 04:57:32;;;;;;;0.90;0.60;;;;;;;7.39;100.00;99980.22;4882480;29;20198;-77
2024/03/23 05:00:03;;;;;;;1.08;0.55;;;;;;;7.37;100.00;99971.50;4871656;29;20194;-76
2024/03/23 05:02:33;;;;;;;1.65;0.88;;;;;;;7.31;100.00;99966.97;4884746;29;20703;-77
2024/03/23 05:05:01;;;;;;;0.80;0.50;;;;;;;7.27;100.00;99963.81;4869426;29;20857;-76
2024/03/23 05:07:29;;;;;;;0.80;0.50;;;;;;;7.32;100.00;99966.72;4881497;29;20338;-77
2024/03/23 05:09:56;;;;;;;2.75;1.67;;;;;;;7.31;100.00;99970.44;4868879;29;20677;-76
2024/03/23 05:12:25;;;;;;;0.80;0.50;;;;;;;7.16;100.00;99974.38;4885493;29;20262;-77
2024/03/23 05:14:52;;;;;;;1.80;0.77;;;;;;;7.19;100.00;99964.00;4888754;29;20309;-77
2024/03/23 05:17:23;;;;;;;2.95;1.23;;;;;;;7.07;100.00;99965.63;4892050;29;20749;-77
2024/03/23 05:19:50;;;;;;;0.95;0.55;;;;;;;7.12;100.00;99968.53;4900501;29;20737;-77
2024/03/23 05:22:18;;;;;;;0.90;0.60;;;;;;;6.99;100.00;99953.19;4906031;29;20170;-77
2024/03/23 05:24:46;;;;;;;0.80;0.40;;;;;;;7.08;100.00;99953.00;4885097;29;20728;-76
2024/03/23 05:27:14;;;;;;;1.85;0.90;;;;;;;7.07;100.00;99960.25;4868810;29;20595;-78
2024/03/23 05:29:41;;;;;;;4.63;0.88;;;;;;;7.11;100.00;99955.31;4884588;29;20210;-77
2024/03/23 05:32:10;;;;;;;0.82;0.63;;;;;;;7.17;100.00;99954.47;4871798;29;20199;-78
2024/03/23 05:34:38;;;;;;;1.00;0.82;;;;;;;6.97;100.00;99949.06;4883329;29;20226;-77
2024/03/23 05:37:06;;;;;;;0.90;0.57;;;;;;;7.08;100.00;99951.16;4883548;29;20238;-77
2024/03/23 05:39:34;;;;;;;1.10;0.80;;;;;;;6.93;100.00;99950.47;4883105;29;20202;-77
2024/03/23 05:42:02;;;;;;;2.10;0.70;;;;;;;7.08;100.00;99945.75;4882163;29;20204;-76
2024/03/23 05:44:31;;;;;;;1.77;1.25;;;;;;;7.13;100.00;99943.28;4883084;29;20214;-77
2024/03/23 05:46:59;;;;;;;0.80;0.60;;;;;;;6.99;100.00;99936.22;4868616;29;20214;-77
2024/03/23 05:49:27;;;;;;;0.90;0.60;;;;;;;7.07;100.00;99929.84;4884670;29;20209;-76
2024/03/23 05:51:56;;;;;;;1.38;0.70;;;;;;;7.09;100.00;99928.59;4884831;29;20213;-77
2024/03/23 05:54:23;;;;;;;4.75;0.73;;;;;;;7.14;100.00;99923.44;4891281;29;20492;-77
2024/03/23 05:56:55;;;;;;;1.10;0.60;;;;;;;7.11;100.00;99913.09;4881461;29;20573;-77
2024/03/23 05:59:23;;;;;;;1.33;0.88;;;;;;;7.17;100.00;99906.88;4888568;29;20574;-77
2024/03/23 06:01:51;;;;;;;1.00;0.70;;;;;;;7.20;100.00;99911.03;4882853;29;20245;-74
2024/03/23 06:04:18;;;;;;;6.32;0.77;;;;;;;7.20;100.00;99911.03;4882700;29;20735;-76
2024/03/23 06:06:46;;;;;;;8.52;2.85;;;;;;;7.13;100.00;99897.56;4898311;29;20195;-76
2024/03/23 06:09:15;;;;;;;0.90;0.73;;;;;;;7.15;100.00;99902.75;4882416;29;20612;-76
2024/03/23 06:11:43;;;;;;;0.80;0.50;;;;;;;7.18;100.00;99896.94;4881909;29;20196;-77
2024/03/23 06:14:10;;;;;;;0.80;0.57;;;;;;;7.24;100.00;99886.22;4884691;29;20594;-76
2024/03/23 06:16:38;;;;;;;1.27;0.70;;;;;;;7.28;100.00;99887.44;4853921;29;20659;-77
2024/03/23 06:19:06;;;;;;;2.42;1.35;;;;;;;7.43;100.00;99888.09;4878543;29;20293;-77
2024/03/23 06:21:34;;;;;;;0.80;0.40;;;;;;;7.25;100.00;99885.19;4885824;29;20686;-77
2024/03/23 06:24:02;;;;;;;5.93;0.73;;;;;;;7.18;100.00;99872.72;4882962;29;20750;-77
2024/03/23 06:26:31;;;;;;;0.80;0.50;;;;;;;7.20;100.00;99882.28;4882832;29;20253;-76
2024/03/23 06:28:59;;;;;;;0.90;0.50;;;;;;;7.08;100.00;99875.81;4868303;29;20210;-76
2024/03/23 06:31:28;;;;;;;1.00;0.75;;;;;;;7.29;100.00;99878.34;4864304;29;20257;-76
2024/03/23 06:33:56;;;;;;;2.33;1.05;;;;;;;7.21;100.00;99881.22;4882326;29;20263;-75
2024/03/23 06:36:24;;;;;;;1.00;0.80;;;;;;;7.06;100.00;99874.38;4874416;29;20371;-77
2024/03/23 06:38:52;;;;;;;1.13;0.85;;;;;;;7.25;100.00;99877.09;4881957;29;20273;-75
2024/03/23 06:41:21;;;;;;;2.47;0.70;;;;;;;7.17;100.00;99879.13;4881976;29;20190;-75
2024/03/23 06:43:49;;;;;;;16.88;1.05;;;;;;;7.18;100.00;99870.88;4881931;29;20305;-75
2024/03/23 06:46:18;;;;;;;0.90;0.70;;;;;;;7.21;100.00;99862.38;4883788;29;20305;-79
2024/03/23 06:48:45;;;;;;;1.33;0.68;;;;;;;7.41;100.00;99860.53;4885145;29;20194;-76
2024/03/23 06:51:14;;;;;;;2.10;0.95;;;;;;;7.51;100.00;99862.81;4886829;29;20206;-76
2024/03/23 06:53:41;;;;;;;1.95;1.48;;;;;;;7.58;100.00;99852.88;4886939;29;20767;-75
2024/03/23 06:56:09;;;;;;;2.20;1.27;;;;;;;7.47;100.00;99852.66;4886673;29;20196;-75
2024/03/23 06:58:37;;;;;;;1.02;0.70;;;;;;;7.66;100.00;99851.84;4890872;29;20190;-76
2024/03/23 07:01:07;;;;;;;1.33;0.70;;;;;;;7.79;100.00;99851.84;4903261;29;20434;-78
2024/03/23 07:03:34;;;;;;;0.80;0.50;;;;;;;7.64;100.00;99848.53;4903910;29;20254;-77
2024/03/23 07:06:02;;;;;;;0.90;0.80;;;;;;;7.49;100.00;99845.22;4908883;29;20229;-78
2024/03/23 07:08:30;;;;;;;0.80;0.50;;;;;;;7.35;100.00;99829.09;4894488;29;20252;-78
2024/03/23 07:10:58;;;;;;;1.00;0.90;;;;;;;7.54;100.00;99842.75;4882039;29;20567;-76
2024/03/23 07:13:25;;;;;;;2.45;1.83;;;;;;;7.78;100.00;99842.09;4878156;29;20265;-77
2024/03/23 07:15:54;;;;;;;3.30;1.30;;;;;;;7.79;100.00;99841.06;4882059;29;20686;-77
2024/03/23 07:18:23;;;;;;;5.82;4.07;;;;;;;7.73;100.00;99841.91;4889428;29;20264;-77
2024/03/23 07:20:55;;;;;;;6.20;1.65;;;;;;;7.72;100.00;99843.75;4885660;29;20198;-76
2024/03/23 07:23:23;;;;;;;2.55;1.90;;;;;;;7.41;100.00;99839.00;4885539;29;20217;-77
2024/03/23 07:26:01;;;;;;;17.77;6.63;;;;;;;7.24;100.00;99851.22;4889437;29;20221;-75
2024/03/23 07:28:31;;;;;;;4.40;3.00;;;;;;;7.29;100.00;99835.28;4871199;29;20206;-75
2024/03/23 07:31:04;;;;;;;1.63;0.95;;;;;;;7.47;100.00;99831.13;4865301;29;20300;-75
2024/03/23 07:33:33;;;;;;;1.13;1.02;;;;;;;7.53;100.00;99838.38;4891599;29;20230;-77
2024/03/23 07:36:02;;;;;;;0.90;0.60;;;;;;;7.65;100.00;99828.66;4876652;29;20206;-77
2024/03/23 07:38:29;;;;;;;1.83;1.65;;;;;;;7.34;100.00;99827.44;4880760;29;20217;-77
2024/03/23 07:41:08;;;;;;;0.80;0.50;;;;;;;7.12;100.00;99834.03;4880444;29;20322;-77
2024/03/23 07:43:36;;;;;;;0.90;0.70;;;;;;;7.17;100.00;99826.16;4880512;29;20695;-77
2024/03/23 07:46:05;;;;;;;2.88;0.90;;;;;;;7.19;100.00;99825.97;4861772;29;20224;-76
2024/03/23 07:48:34;;;;;;;1.13;0.77;;;;;;;7.26;100.00;99824.13;4880277;29;20196;-76
2024/03/23 07:51:04;;;;;;;3.17;1.73;;;;;;;7.11;100.00;99816.25;4888248;29;20280;-77
2024/03/23 07:53:31;;;;;;;2.30;1.55;;;;;;;6.99;100.00;99812.50;4868008;29;20253;-77
2024/03/23 07:56:01;;;;;;;3.00;2.80;;;;;;;7.07;100.00;99814.19;4879485;29;20569;-76
2024/03/23 07:58:29;;;;;;;1.20;0.75;;;;;;;7.01;100.00;99821.19;4879340;29;20187;-76
2024/03/23 08:01:04;;;;;;;1.70;1.23;;;;;;;7.01;100.00;99828.44;4885409;29;20209;-76
2024/03/23 08:03:33;;;;;;;1.52;1.35;;;;;;;6.80;100.00;99824.03;4875715;29;20657;-76
2024/03/23 08:06:09;;;;;;;0.90;0.70;;;;;;;6.73;100.00;99820.53;4890920;29;20321;-79
2024/03/23 08:08:37;;;;;;;1.60;1.50;;;;;;;6.58;100.00;99822.56;4882638;29;20190;-78
2024/03/23 08:11:09;;;;;;;2.05;1.83;;;;;;;6.57;100.00;99818.19;4880957;29;20238;-76
2024/03/23 08:13:39;;;;;;;3.00;1.30;;;;;;;6.57;100.00;99818.19;4881744;29;20301;-78
2024/03/23 08:16:09;;;;;;;2.20;1.85;;;;;;;6.63;100.00;99812.03;4881121;29;20205;-77
2024/03/23 08:18:37;;;;;;;1.23;0.93;;;;;;;6.52;100.00;99816.94;4880492;29;20319;-78
2024/03/23 08:21:07;;;;;;;0.90;0.57;;;;;;;6.49;100.00;99806.59;4892213;29;20625;-78
2024/03/23 08:23:36;;;;;;;0.95;0.50;;;;;;;6.52;100.00;99805.38;4876396;29;20623;-78
2024/03/23 08:26:05;;;;;;;1.00;0.85;;;;;;;6.34;100.00;99805.91;4883003;29;20222;-77
2024/03/23 08:28:33;;;;;;;0.80;0.50;;;;;;;6.16;100.00;99802.13;4882555;29;20229;-77
2024/03/23 08:31:03;;;;;;;1.00;0.70;;;;;;;6.03;100.00;99806.41;4877446;29;20677;-75
2024/03/23 08:33:31;;;;;;;0.80;0.50;;;;;;;6.06;100.00;99807.88;4889941;29;20243;-75
2024/03/23 08:36:02;;;;;;;4.60;0.75;;;;;;;6.04;100.00;99805.41;4884339;29;20277;-76
2024/03/23 08:38:30;;;;;;;0.90;0.60;;;;;;;6.01;100.00;99804.94;4883988;29;20213;-76
2024/03/23 08:41:00;;;;;;;0.80;0.50;;;;;;;5.91;100.00;99802.63;4885704;29;20552;-77
2024/03/23 08:43:28;;;;;;;0.90;0.60;;;;;;;5.65;100.00;99797.09;4886461;29;20221;-76
2024/03/23 08:46:06;;;;;;;1.20;0.80;;;;;;;5.55;100.00;99797.44;4886850;29;20213;-78
2024/03/23 08:48:34;;;;;;;2.65;1.10;;;;;;;5.56;100.00;99792.91;4887475;29;20201;-79
2024/03/23 08:51:05;;;;;;;1.27;1.08;;;;;;;5.65;100.00;99799.75;4884378;29;20259;-80
2024/03/23 08:53:33;;;;;;;1.50;0.57;;;;;;;5.61;100.00;99799.34;4886467;29;20257;-79
2024/03/23 08:56:02;;;;;;;1.27;0.60;;;;;;;5.44;100.00;99800.66;4883337;29;20210;-79
2024/03/23 08:58:30;;;;;;;0.80;0.50;;;;;;;5.32;100.00;99802.22;4880871;29;20194;-80
2024/03/23 09:01:04;;;;;;;0.80;0.50;;;;;;;5.34;100.00;99802.84;4892055;29;20190;-79
2024/03/23 09:03:35;;;;;;;0.80;0.50;;;;;;;5.21;100.00;99810.78;4880723;29;20245;-79
2024/03/23 09:06:07;;;;;;;1.20;0.60;;;;;;;5.19;100.00;99802.94;4879286;29;20213;-79
2024/03/23 09:08:36;;;;;;;0.90;0.80;;;;;;;5.26;100.00;99803.00;4872111;29;20558;-79
2024/03/23 09:11:06;;;;;;;0.80;0.50;;;;;;;5.08;100.00;99810.69;4870473;29;20682;-80
2024/03/23 09:13:35;;;;;;;0.90;0.60;;;;;;;5.07;100.00;99814.38;4856130;29;20219;-80
2024/03/23 09:16:04;;;;;;;3.20;1.20;;;;;;;5.08;100.00;99810.69;4882411;29;20412;-80
2024/03/23 09:18:33;;;;;;;0.82;0.63;;;;;;;5.09;100.00;99807.78;4873763;29;20646;-80
2024/03/23 09:21:03;;;;;;;0.80;0.50;;;;;;;5.00;100.00;99808.94;4888997;29;20194;-80
2024/03/23 09:23:30;;;;;;;2.55;1.60;;;;;;;4.93;100.00;99826.00;4889373;29;20202;-80
2024/03/23 09:26:01;;;;;;;1.33;0.85;;;;;;;4.95;100.00;99830.16;4888673;29;20649;-81
2024/03/23 09:28:30;;;;;;;0.85;0.60;;;;;;;4.94;100.00;99825.00;4889416;29;20256;-80
2024/03/23 09:31:04;;;;;;;0.80;0.50;;;;;;;5.02;100.00;99832.91;4890704;29;20210;-81
2024/03/23 09:33:31;;;;;;;1.15;1.05;;;;;;;5.13;100.00;99824.34;4892531;29;20262;-78
2024/03/23 09:36:03;;;;;;;0.80;0.50;;;;;;;5.13;100.00;99827.03;4892995;29;20214;-79
2024/03/23 09:38:32;;;;;;;1.02;0.90;;;;;;;5.03;100.00;99823.84;4893196;29;20213;-79
2024/03/23 09:41:01;;;;;;;1.25;0.95;;;;;;;5.03;100.00;99823.84;4895765;29;20189;-78
2024/03/23 09:43:29;;;;;;;0.80;0.50;;;;;;;5.07;100.00;99819.75;4901823;29;20237;-78
2024/03/23 09:45:57;;;;;;;0.82;0.57;;;;;;;5.01;100.00;99836.59;4891561;29;20266;-79
2024/03/23 09:48:24;;;;;;;0.90;0.63;;;;;;;5.10;100.00;99832.75;4886723;29;20249;-78
2024/03/23 09:50:53;;;;;;;0.80;0.60;;;;;;;5.03;100.00;99837.25;4886830;29;20182;-79
2024/03/23 09:53:22;;;;;;;0.80;0.40;;;;;;;4.96;100.00;99833.66;4887881;29;20222;-79
2024/03/23 09:55:51;;;;;;;1.52;0.68;;;;;;;4.90;100.00;99845.97;4887351;29;20194;-79
2024/03/23 09:58:19;;;;;;;1.17;1.08;;;;;;;4.94;100.00;99849.13;4886850;29;20202;-80
2024/03/23 10:00:47;;;;;;;2.17;0.90;;;;;;;4.91;100.00;99846.81;4887000;29;20190;-81
2024/03/23 10:03:14;;;;;;;1.20;0.60;;;;;;;4.91;100.00;99852.16;4872060;29;20202;-79
2024/03/23 10:05:43;;;;;;;0.90;0.63;;;;;;;5.00;100.00;99856.38;4885564;29;20186;-77
2024/03/23 10:08:19;;;;;;;0.80;0.50;;;;;;;5.04;100.00;99873.75;4885773;29;20214;-78
2024/03/23 10:10:49;;;;;;;1.35;1.17;;;;;;;4.86;100.00;99865.31;4870723;29;20194;-79
2024/03/23 10:13:25;;;;;;;0.80;0.50;;;;;;;4.76;100.00;99879.84;4886396;29;20269;-79
2024/03/23 10:15:58;;;;;;;0.90;0.77;;;;;;;5.03;100.00;99878.31;4886725;29;20174;-81
2024/03/23 10:18:28;;;;;;;1.00;0.85;;;;;;;4.96;100.00;99892.63;4888077;29;20201;-80
2024/03/23 10:21:10;;;;;;;1.83;1.45;;;;;;;5.11;100.00;99888.06;4888195;29;20175;-81
2024/03/23 10:23:39;;;;;;;1.65;0.70;;;;;;;5.49;100.00;99886.75;4889742;29;20222;-80
2024/03/23 10:26:18;;;;;;;9.90;1.10;;;;;;;5.61;100.00;99882.53;4889255;29;20645;-81
2024/03/23 10:28:53;;;;;;;0.82;0.52;;;;;;;5.49;100.00;99893.97;4887585;29;20276;-81
2024/03/23 10:31:22;;;;;;;1.15;0.55;;;;;;;5.09;100.00;99896.28;4887126;29;20234;-79
2024/03/23 10:33:50;;;;;;;0.90;0.55;;;;;;;4.87;100.00;99899.16;4888941;29;20723;-79
2024/03/23 10:36:20;;;;;;;0.95;0.63;;;;;;;4.82;100.00;99892.50;4893060;29;20188;-79
2024/03/23 10:38:48;;;;;;;0.80;0.70;;;;;;;4.86;100.00;99897.47;4909860;29;20189;-81
2024/03/23 10:41:17;;;;;;;0.80;0.50;;;;;;;5.45;100.00;99904.28;4894621;29;20659;-79
2024/03/23 10:43:47;;;;;;;1.80;1.70;;;;;;;5.96;100.00;99901.38;4915524;29;20232;-79
2024/03/23 10:46:15;;;;;;;5.78;1.27;;;;;;;5.92;100.00;99906.31;4914318;29;20667;-79
2024/03/23 10:48:44;;;;;;;1.52;1.40;;;;;;;6.50;100.00;99899.63;4907965;29;20210;-80
2024/03/23 10:51:13;;;;;;;3.35;1.05;;;;;;;6.33;100.00;99892.94;4906185;29;20174;-80
2024/03/23 10:53:42;;;;;;;0.90;0.75;;;;;;;6.41;100.00;99894.63;4906221;29;20654;-81
2024/03/23 10:56:11;;;;;;;0.85;0.50;;;;;;;6.49;100.00;99894.44;4905542;29;20206;-79
2024/03/23 10:58:44;;;;;;;1.10;0.80;;;;;;;6.58;100.00;99884.38;4907455;29;20272;-81
2024/03/23 11:01:12;;;;;;;3.33;1.65;;;;;;;6.42;100.00;99885.53;4914948;29;20213;-79
2024/03/23 11:03:45;;;;;;;3.33;1.35;;;;;;;6.63;100.00;99898.03;4922733;29;20232;-79
2024/03/23 11:06:34;;;;;;;3.47;1.25;;;;;;;6.55;100.00;99893.66;4922604;29;20173;-78
2024/03/23 11:09:02;;;;;;;1.52;1.42;;;;;;;6.77;100.00;99889.00;4917045;29;20213;-79
2024/03/23 11:11:31;;;;;;;1.05;0.95;;;;;;;6.94;100.00;99895.66;4907730;28;20273;-79
2024/03/23 11:14:13;;;;;;;14.05;1.10;;;;;;;6.97;100.00;99901.44;4902620;29;20318;-79
2024/03/23 11:16:40;;;;;;;1.25;0.75;;;;;;;7.22;100.00;99904.41;4910609;29;20238;-79
2024/03/23 11:19:36;;;;;;;1.08;0.80;;;;;;;6.99;100.00;99909.31;4910400;29;20209;-79
2024/03/23 11:22:04;;;;;;;1.63;1.50;;;;;;;6.90;97.73;99905.16;4894978;29;20278;-79
2024/03/23 11:24:33;;;;;;;1.13;0.82;;;;;;;7.00;99.77;99905.59;4893526;29;20305;-80
2024/03/23 11:27:03;;;;;;;1.10;0.85;;;;;;;7.31;98.27;99905.88;4894897;29;20197;-79
2024/03/23 11:29:33;;;;;;;1.67;0.82;;;;;;;7.56;100.00;99905.25;4894381;29;20190;-79
2024/03/23 11:32:02;;;;;;;2.13;1.20;;;;;;;7.76;100.00;99895.31;4901727;29;20210;-78
2024/03/23 11:34:30;;;;;;;7.43;1.50;;;;;;;7.80;99.04;99901.94;4903475;29;20202;-78
2024/03/23 11:37:06;;;;;;;1.48;0.73;;;;;;;7.88;98.83;99907.16;4904055;29;20360;-78
2024/03/23 11:39:34;;;;;;;1.33;1.08;;;;;;;8.13;100.00;99912.72;4904224;29;20173;-79